sensor_id;sensor_type;location;lat;lon;timestamp;temperature;humidity
58582;DHT22;44361;51.476;5.700;2023-05-10T00:00:50;12.80;99.90
58582;DHT22;44361;51.476;5.700;2023-05-10T00:03:16;12.90;99.90
58582;DHT22;44361;51.476;5.700;2023-05-10T00:05:42;12.80;99.90
58582;DHT22;44361;51.476;5.700;2023-05-10T00:08:07;12.80;99.90
58582;DHT22;44361;51.476;5.700;2023-05-10T00:10:33;12.80;99.90
58582;DHT22;44361;51.476;5.700;2023-05-10T00:12:59;12.80;99.90
58582;DHT22;44361;51.476;5.700;2023-05-10T00:15:24;12.80;99.90
58582;DHT22;44361;51.476;5.700;2023-05-10T00:17:50;12.80;99.90
58582;DHT22;44361;51.476;5.700;2023-05-10T00:20:15;12.80;99.90
58582;DHT22;44361;51.476;5.700;2023-05-10T00:22:41;12.80;99.90
58582;DHT22;44361;51.476;5.700;2023-05-10T00:25:07;12.70;99.90
58582;DHT22;44361;51.476;5.700;2023-05-10T00:27:33;12.80;99.90
58582;DHT22;44361;51.476;5.700;2023-05-10T00:29:58;12.70;99.90
58582;DHT22;44361;51.476;5.700;2023-05-10T00:32:24;12.70;99.90
58582;DHT22;44361;51.476;5.700;2023-05-10T00:34:49;12.70;99.90
58582;DHT22;44361;51.476;5.700;2023-05-10T00:37:15;12.60;99.90
58582;DHT22;44361;51.476;5.700;2023-05-10T00:39:40;12.60;99.90
58582;DHT22;44361;51.476;5.700;2023-05-10T00:42:06;12.60;99.90
58582;DHT22;44361;51.476;5.700;2023-05-10T00:44:31;12.60;99.90
58582;DHT22;44361;51.476;5.700;2023-05-10T00:46:57;12.60;99.90
58582;DHT22;44361;51.476;5.700;2023-05-10T00:49:23;12.50;99.90
58582;DHT22;44361;51.476;5.700;2023-05-10T00:51:49;12.50;99.90
58582;DHT22;44361;51.476;5.700;2023-05-10T00:54:15;12.50;99.90
58582;DHT22;44361;51.476;5.700;2023-05-10T00:56:41;12.50;99.90
58582;DHT22;44361;51.476;5.700;2023-05-10T00:59:08;12.50;99.90
58582;DHT22;44361;51.476;5.700;2023-05-10T01:01:35;12.50;99.90
58582;DHT22;44361;51.476;5.700;2023-05-10T01:04:01;12.50;99.90
58582;DHT22;44361;51.476;5.700;2023-05-10T01:06:27;12.40;99.90
58582;DHT22;44361;51.476;5.700;2023-05-10T01:08:53;12.50;99.90
58582;DHT22;44361;51.476;5.700;2023-05-10T01:11:18;12.50;99.90
58582;DHT22;44361;51.476;5.700;2023-05-10T01:13:56;12.60;99.90
58582;DHT22;44361;51.476;5.700;2023-05-10T01:16:23;12.60;99.90
58582;DHT22;44361;51.476;5.700;2023-05-10T01:18:50;12.60;99.90
58582;DHT22;44361;51.476;5.700;2023-05-10T01:21:41;12.60;99.90
58582;DHT22;44361;51.476;5.700;2023-05-10T01:25:28;12.60;99.90
58582;DHT22;44361;51.476;5.700;2023-05-10T01:32:57;12.40;99.90
58582;DHT22;44361;51.476;5.700;2023-05-10T01:35:40;12.40;99.90
58582;DHT22;44361;51.476;5.700;2023-05-10T01:38:19;12.40;99.90
58582;DHT22;44361;51.476;5.700;2023-05-10T01:41:07;12.50;99.90
58582;DHT22;44361;51.476;5.700;2023-05-10T01:43:48;12.60;99.90
58582;DHT22;44361;51.476;5.700;2023-05-10T01:46:20;12.60;99.90
58582;DHT22;44361;51.476;5.700;2023-05-10T01:48:48;12.70;99.90
58582;DHT22;44361;51.476;5.700;2023-05-10T01:51:23;12.60;99.90
58582;DHT22;44361;51.476;5.700;2023-05-10T01:53:49;12.70;99.90
58582;DHT22;44361;51.476;5.700;2023-05-10T01:56:20;12.70;99.90
58582;DHT22;44361;51.476;5.700;2023-05-10T01:58:49;12.80;99.90
58582;DHT22;44361;51.476;5.700;2023-05-10T02:01:19;12.80;99.90
58582;DHT22;44361;51.476;5.700;2023-05-10T02:03:46;12.80;99.90
58582;DHT22;44361;51.476;5.700;2023-05-10T02:06:13;12.80;99.90
58582;DHT22;44361;51.476;5.700;2023-05-10T02:08:40;12.80;99.90
58582;DHT22;44361;51.476;5.700;2023-05-10T02:11:07;12.80;99.90
58582;DHT22;44361;51.476;5.700;2023-05-10T02:13:34;12.80;99.90
58582;DHT22;44361;51.476;5.700;2023-05-10T02:16:01;12.80;99.90
58582;DHT22;44361;51.476;5.700;2023-05-10T02:18:29;12.90;99.90
58582;DHT22;44361;51.476;5.700;2023-05-10T02:20:55;12.90;99.90
58582;DHT22;44361;51.476;5.700;2023-05-10T02:23:22;12.90;99.90
58582;DHT22;44361;51.476;5.700;2023-05-10T02:25:49;12.90;99.90
58582;DHT22;44361;51.476;5.700;2023-05-10T02:28:17;12.90;99.90
58582;DHT22;44361;51.476;5.700;2023-05-10T02:30:43;12.90;99.90
58582;DHT22;44361;51.476;5.700;2023-05-10T02:33:09;12.90;99.90
58582;DHT22;44361;51.476;5.700;2023-05-10T02:35:37;13.00;99.90
58582;DHT22;44361;51.476;5.700;2023-05-10T02:38:04;12.90;99.90
58582;DHT22;44361;51.476;5.700;2023-05-10T02:40:30;13.00;99.90
58582;DHT22;44361;51.476;5.700;2023-05-10T02:42:57;13.00;99.90
58582;DHT22;44361;51.476;5.700;2023-05-10T02:45:27;13.00;99.90
58582;DHT22;44361;51.476;5.700;2023-05-10T02:47:53;12.90;99.90
58582;DHT22;44361;51.476;5.700;2023-05-10T02:50:19;12.90;99.90
58582;DHT22;44361;51.476;5.700;2023-05-10T02:52:50;12.90;99.90
58582;DHT22;44361;51.476;5.700;2023-05-10T02:55:21;13.00;99.90
58582;DHT22;44361;51.476;5.700;2023-05-10T02:57:59;13.00;99.90
58582;DHT22;44361;51.476;5.700;2023-05-10T03:00:25;13.00;99.90
58582;DHT22;44361;51.476;5.700;2023-05-10T03:02:51;13.00;99.90
58582;DHT22;44361;51.476;5.700;2023-05-10T03:05:16;13.00;99.90
58582;DHT22;44361;51.476;5.700;2023-05-10T03:07:42;13.00;99.90
58582;DHT22;44361;51.476;5.700;2023-05-10T03:10:09;13.00;99.90
58582;DHT22;44361;51.476;5.700;2023-05-10T03:18:01;12.90;99.90
58582;DHT22;44361;51.476;5.700;2023-05-10T03:20:36;12.90;99.90
58582;DHT22;44361;51.476;5.700;2023-05-10T03:25:44;12.90;99.90
58582;DHT22;44361;51.476;5.700;2023-05-10T03:28:12;12.90;99.90
58582;DHT22;44361;51.476;5.700;2023-05-10T03:30:41;12.90;99.90
58582;DHT22;44361;51.476;5.700;2023-05-10T03:33:07;12.90;99.90
58582;DHT22;44361;51.476;5.700;2023-05-10T03:35:33;12.90;99.90
58582;DHT22;44361;51.476;5.700;2023-05-10T03:37:58;12.90;99.90
58582;DHT22;44361;51.476;5.700;2023-05-10T03:40:25;12.90;99.90
58582;DHT22;44361;51.476;5.700;2023-05-10T03:42:51;12.90;99.90
58582;DHT22;44361;51.476;5.700;2023-05-10T03:45:16;13.00;99.90
58582;DHT22;44361;51.476;5.700;2023-05-10T03:47:42;13.00;99.90
58582;DHT22;44361;51.476;5.700;2023-05-10T03:50:07;12.90;99.90
58582;DHT22;44361;51.476;5.700;2023-05-10T03:52:33;12.90;99.90
58582;DHT22;44361;51.476;5.700;2023-05-10T03:54:59;12.90;99.90
58582;DHT22;44361;51.476;5.700;2023-05-10T03:57:24;12.90;99.90
58582;DHT22;44361;51.476;5.700;2023-05-10T03:59:50;13.00;99.90
58582;DHT22;44361;51.476;5.700;2023-05-10T04:02:15;12.90;99.90
58582;DHT22;44361;51.476;5.700;2023-05-10T04:04:41;12.90;99.90
58582;DHT22;44361;51.476;5.700;2023-05-10T04:07:07;12.90;99.90
58582;DHT22;44361;51.476;5.700;2023-05-10T04:09:32;12.90;99.90
58582;DHT22;44361;51.476;5.700;2023-05-10T04:11:59;12.90;99.90
58582;DHT22;44361;51.476;5.700;2023-05-10T04:14:25;13.00;99.90
58582;DHT22;44361;51.476;5.700;2023-05-10T04:16:50;12.90;99.90
58582;DHT22;44361;51.476;5.700;2023-05-10T04:19:16;12.90;99.90
58582;DHT22;44361;51.476;5.700;2023-05-10T04:21:42;12.90;99.90
58582;DHT22;44361;51.476;5.700;2023-05-10T04:24:07;12.90;99.90
58582;DHT22;44361;51.476;5.700;2023-05-10T04:26:33;12.90;99.90
58582;DHT22;44361;51.476;5.700;2023-05-10T04:28:58;12.90;99.90
58582;DHT22;44361;51.476;5.700;2023-05-10T04:31:24;12.90;99.90
58582;DHT22;44361;51.476;5.700;2023-05-10T04:33:49;13.00;99.90
58582;DHT22;44361;51.476;5.700;2023-05-10T04:36:15;13.00;99.90
58582;DHT22;44361;51.476;5.700;2023-05-10T04:38:40;13.00;99.90
58582;DHT22;44361;51.476;5.700;2023-05-10T04:41:07;13.00;99.90
58582;DHT22;44361;51.476;5.700;2023-05-10T04:43:33;13.00;99.90
58582;DHT22;44361;51.476;5.700;2023-05-10T04:45:59;12.90;99.90
58582;DHT22;44361;51.476;5.700;2023-05-10T04:48:24;13.00;99.90
58582;DHT22;44361;51.476;5.700;2023-05-10T04:50:50;13.00;99.90
58582;DHT22;44361;51.476;5.700;2023-05-10T04:53:16;13.00;99.90
58582;DHT22;44361;51.476;5.700;2023-05-10T04:55:42;13.00;99.90
58582;DHT22;44361;51.476;5.700;2023-05-10T04:58:07;12.90;99.90
58582;DHT22;44361;51.476;5.700;2023-05-10T05:00:33;12.90;99.90
58582;DHT22;44361;51.476;5.700;2023-05-10T05:02:59;12.90;99.90
58582;DHT22;44361;51.476;5.700;2023-05-10T05:05:24;12.90;99.90
58582;DHT22;44361;51.476;5.700;2023-05-10T05:07:50;12.90;99.90
58582;DHT22;44361;51.476;5.700;2023-05-10T05:10:16;12.90;99.90
58582;DHT22;44361;51.476;5.700;2023-05-10T05:12:41;12.90;99.90
58582;DHT22;44361;51.476;5.700;2023-05-10T05:15:07;12.90;99.90
58582;DHT22;44361;51.476;5.700;2023-05-10T05:17:34;12.90;99.90
58582;DHT22;44361;51.476;5.700;2023-05-10T05:20:00;12.90;99.90
58582;DHT22;44361;51.476;5.700;2023-05-10T05:22:25;12.90;99.90
58582;DHT22;44361;51.476;5.700;2023-05-10T05:24:54;12.90;99.90
58582;DHT22;44361;51.476;5.700;2023-05-10T05:27:20;12.90;99.90
58582;DHT22;44361;51.476;5.700;2023-05-10T05:29:53;12.90;99.90
58582;DHT22;44361;51.476;5.700;2023-05-10T05:32:19;12.90;99.90
58582;DHT22;44361;51.476;5.700;2023-05-10T05:34:45;12.90;99.90
58582;DHT22;44361;51.476;5.700;2023-05-10T05:37:15;12.90;99.90
58582;DHT22;44361;51.476;5.700;2023-05-10T05:39:41;12.90;99.90
58582;DHT22;44361;51.476;5.700;2023-05-10T05:42:08;12.90;99.90
58582;DHT22;44361;51.476;5.700;2023-05-10T05:44:33;12.90;99.90
58582;DHT22;44361;51.476;5.700;2023-05-10T05:46:59;13.10;99.90
58582;DHT22;44361;51.476;5.700;2023-05-10T05:49:24;13.20;99.90
58582;DHT22;44361;51.476;5.700;2023-05-10T05:51:50;13.30;99.90
58582;DHT22;44361;51.476;5.700;2023-05-10T05:54:16;13.30;99.90
58582;DHT22;44361;51.476;5.700;2023-05-10T05:56:41;13.30;99.90
58582;DHT22;44361;51.476;5.700;2023-05-10T05:59:07;13.30;99.90
58582;DHT22;44361;51.476;5.700;2023-05-10T06:01:33;13.40;99.90
58582;DHT22;44361;51.476;5.700;2023-05-10T06:03:58;13.40;99.90
58582;DHT22;44361;51.476;5.700;2023-05-10T06:06:24;13.50;99.90
58582;DHT22;44361;51.476;5.700;2023-05-10T06:08:49;13.60;99.90
58582;DHT22;44361;51.476;5.700;2023-05-10T06:11:15;13.70;99.90
58582;DHT22;44361;51.476;5.700;2023-05-10T06:13:40;13.70;99.90
58582;DHT22;44361;51.476;5.700;2023-05-10T06:16:07;13.70;99.90
58582;DHT22;44361;51.476;5.700;2023-05-10T06:18:33;13.80;99.90
58582;DHT22;44361;51.476;5.700;2023-05-10T06:20:58;13.70;99.90
58582;DHT22;44361;51.476;5.700;2023-05-10T06:23:24;13.70;99.90
58582;DHT22;44361;51.476;5.700;2023-05-10T06:25:51;13.70;99.90
58582;DHT22;44361;51.476;5.700;2023-05-10T06:28:16;13.80;99.90
58582;DHT22;44361;51.476;5.700;2023-05-10T06:30:42;13.70;99.90
58582;DHT22;44361;51.476;5.700;2023-05-10T06:33:07;13.60;99.90
58582;DHT22;44361;51.476;5.700;2023-05-10T06:35:33;13.60;99.90
58582;DHT22;44361;51.476;5.700;2023-05-10T06:37:58;13.60;99.90
58582;DHT22;44361;51.476;5.700;2023-05-10T06:40:24;13.60;99.90
58582;DHT22;44361;51.476;5.700;2023-05-10T06:42:50;13.70;99.90
58582;DHT22;44361;51.476;5.700;2023-05-10T06:45:15;13.70;99.90
58582;DHT22;44361;51.476;5.700;2023-05-10T06:47:41;13.60;99.90
58582;DHT22;44361;51.476;5.700;2023-05-10T06:50:10;13.60;99.90
58582;DHT22;44361;51.476;5.700;2023-05-10T06:52:39;13.60;99.90
58582;DHT22;44361;51.476;5.700;2023-05-10T06:55:05;13.60;99.90
58582;DHT22;44361;51.476;5.700;2023-05-10T06:57:31;13.60;99.90
58582;DHT22;44361;51.476;5.700;2023-05-10T07:00:00;13.60;99.90
58582;DHT22;44361;51.476;5.700;2023-05-10T07:02:26;13.70;99.90
58582;DHT22;44361;51.476;5.700;2023-05-10T07:04:51;13.70;99.90
58582;DHT22;44361;51.476;5.700;2023-05-10T07:07:18;13.80;99.90
58582;DHT22;44361;51.476;5.700;2023-05-10T07:09:44;13.70;99.90
58582;DHT22;44361;51.476;5.700;2023-05-10T07:12:10;13.80;99.90
58582;DHT22;44361;51.476;5.700;2023-05-10T07:14:35;13.70;99.90
58582;DHT22;44361;51.476;5.700;2023-05-10T07:17:01;13.80;99.90
58582;DHT22;44361;51.476;5.700;2023-05-10T07:19:26;13.80;99.90
58582;DHT22;44361;51.476;5.700;2023-05-10T07:21:52;13.80;99.90
58582;DHT22;44361;51.476;5.700;2023-05-10T07:24:17;13.80;99.90
58582;DHT22;44361;51.476;5.700;2023-05-10T07:26:43;13.80;99.90
58582;DHT22;44361;51.476;5.700;2023-05-10T07:29:09;13.80;99.90
58582;DHT22;44361;51.476;5.700;2023-05-10T07:31:35;13.80;99.90
58582;DHT22;44361;51.476;5.700;2023-05-10T07:34:00;13.90;99.90
58582;DHT22;44361;51.476;5.700;2023-05-10T07:36:26;13.90;99.90
58582;DHT22;44361;51.476;5.700;2023-05-10T07:38:51;14.00;99.90
58582;DHT22;44361;51.476;5.700;2023-05-10T07:41:17;14.00;99.90
58582;DHT22;44361;51.476;5.700;2023-05-10T07:43:42;14.10;99.90
58582;DHT22;44361;51.476;5.700;2023-05-10T07:46:08;14.20;99.90
58582;DHT22;44361;51.476;5.700;2023-05-10T07:48:36;14.40;99.90
58582;DHT22;44361;51.476;5.700;2023-05-10T07:51:01;14.40;99.90
58582;DHT22;44361;51.476;5.700;2023-05-10T07:53:27;14.50;99.90
58582;DHT22;44361;51.476;5.700;2023-05-10T07:55:56;14.50;99.90
58582;DHT22;44361;51.476;5.700;2023-05-10T07:58:23;14.40;99.90
58582;DHT22;44361;51.476;5.700;2023-05-10T08:00:48;14.40;99.90
58582;DHT22;44361;51.476;5.700;2023-05-10T08:03:14;14.30;99.90
58582;DHT22;44361;51.476;5.700;2023-05-10T08:05:40;14.20;99.90
58582;DHT22;44361;51.476;5.700;2023-05-10T08:08:06;14.20;99.90
58582;DHT22;44361;51.476;5.700;2023-05-10T08:10:31;14.10;99.90
58582;DHT22;44361;51.476;5.700;2023-05-10T08:12:57;14.00;99.90
58582;DHT22;44361;51.476;5.700;2023-05-10T08:15:24;14.00;99.90
58582;DHT22;44361;51.476;5.700;2023-05-10T08:17:50;14.00;99.90
58582;DHT22;44361;51.476;5.700;2023-05-10T08:20:16;14.00;99.90
58582;DHT22;44361;51.476;5.700;2023-05-10T08:22:46;14.00;99.90
58582;DHT22;44361;51.476;5.700;2023-05-10T08:25:12;14.00;99.90
58582;DHT22;44361;51.476;5.700;2023-05-10T08:27:37;14.10;99.90
58582;DHT22;44361;51.476;5.700;2023-05-10T08:30:03;14.10;99.90
58582;DHT22;44361;51.476;5.700;2023-05-10T08:32:29;14.10;99.90
58582;DHT22;44361;51.476;5.700;2023-05-10T08:34:55;14.00;99.90
58582;DHT22;44361;51.476;5.700;2023-05-10T08:37:23;14.00;99.90
58582;DHT22;44361;51.476;5.700;2023-05-10T08:39:48;13.90;99.90
58582;DHT22;44361;51.476;5.700;2023-05-10T08:42:16;13.80;99.90
58582;DHT22;44361;51.476;5.700;2023-05-10T08:44:45;13.80;99.90
58582;DHT22;44361;51.476;5.700;2023-05-10T08:47:15;13.80;99.90
58582;DHT22;44361;51.476;5.700;2023-05-10T08:49:41;13.90;99.90
58582;DHT22;44361;51.476;5.700;2023-05-10T08:52:08;13.90;99.90
58582;DHT22;44361;51.476;5.700;2023-05-10T08:54:36;14.00;99.90
58582;DHT22;44361;51.476;5.700;2023-05-10T08:57:02;13.90;99.90
58582;DHT22;44361;51.476;5.700;2023-05-10T08:59:28;14.00;99.90
58582;DHT22;44361;51.476;5.700;2023-05-10T09:01:56;13.90;99.90
58582;DHT22;44361;51.476;5.700;2023-05-10T09:04:22;14.00;99.90
58582;DHT22;44361;51.476;5.700;2023-05-10T09:06:48;14.00;99.90
58582;DHT22;44361;51.476;5.700;2023-05-10T09:09:14;14.10;99.90
58582;DHT22;44361;51.476;5.700;2023-05-10T09:11:41;14.10;99.90
58582;DHT22;44361;51.476;5.700;2023-05-10T09:14:07;14.20;99.90
58582;DHT22;44361;51.476;5.700;2023-05-10T09:16:34;14.30;99.90
58582;DHT22;44361;51.476;5.700;2023-05-10T09:19:00;14.30;99.90
58582;DHT22;44361;51.476;5.700;2023-05-10T09:21:25;14.40;99.90
58582;DHT22;44361;51.476;5.700;2023-05-10T09:23:51;14.50;99.90
58582;DHT22;44361;51.476;5.700;2023-05-10T09:26:22;14.70;99.90
58582;DHT22;44361;51.476;5.700;2023-05-10T09:28:56;14.90;99.90
58582;DHT22;44361;51.476;5.700;2023-05-10T09:31:22;15.00;99.90
58582;DHT22;44361;51.476;5.700;2023-05-10T09:33:49;15.30;99.90
58582;DHT22;44361;51.476;5.700;2023-05-10T09:36:15;15.40;99.90
58582;DHT22;44361;51.476;5.700;2023-05-10T09:38:49;15.50;99.90
58582;DHT22;44361;51.476;5.700;2023-05-10T09:41:23;15.50;99.90
58582;DHT22;44361;51.476;5.700;2023-05-10T09:43:50;15.90;99.90
58582;DHT22;44361;51.476;5.700;2023-05-10T09:46:20;16.30;99.90
58582;DHT22;44361;51.476;5.700;2023-05-10T09:48:47;16.60;99.90
58582;DHT22;44361;51.476;5.700;2023-05-10T09:51:22;16.70;99.90
58582;DHT22;44361;51.476;5.700;2023-05-10T09:53:48;17.20;99.90
58582;DHT22;44361;51.476;5.700;2023-05-10T09:56:36;17.60;99.90
58582;DHT22;44361;51.476;5.700;2023-05-10T09:59:03;17.60;99.90
58582;DHT22;44361;51.476;5.700;2023-05-10T10:01:29;17.60;99.90
58582;DHT22;44361;51.476;5.700;2023-05-10T10:03:55;17.40;99.90
58582;DHT22;44361;51.476;5.700;2023-05-10T10:06:23;17.20;99.90
58582;DHT22;44361;51.476;5.700;2023-05-10T10:08:49;16.90;99.90
58582;DHT22;44361;51.476;5.700;2023-05-10T10:11:14;17.00;99.90
58582;DHT22;44361;51.476;5.700;2023-05-10T10:13:40;17.20;99.90
58582;DHT22;44361;51.476;5.700;2023-05-10T10:16:06;17.50;99.90
58582;DHT22;44361;51.476;5.700;2023-05-10T10:18:33;17.80;99.90
58582;DHT22;44361;51.476;5.700;2023-05-10T10:20:59;18.30;99.90
58582;DHT22;44361;51.476;5.700;2023-05-10T10:23:25;19.20;99.90
58582;DHT22;44361;51.476;5.700;2023-05-10T10:25:51;19.60;99.90
58582;DHT22;44361;51.476;5.700;2023-05-10T10:28:36;18.80;99.90
58582;DHT22;44361;51.476;5.700;2023-05-10T10:34:31;18.60;99.90
58582;DHT22;44361;51.476;5.700;2023-05-10T10:36:57;18.50;99.90
58582;DHT22;44361;51.476;5.700;2023-05-10T10:39:23;18.20;99.90
58582;DHT22;44361;51.476;5.700;2023-05-10T10:41:54;18.00;99.90
58582;DHT22;44361;51.476;5.700;2023-05-10T10:52:40;16.90;99.90
58582;DHT22;44361;51.476;5.700;2023-05-10T10:55:18;16.90;99.90
58582;DHT22;44361;51.476;5.700;2023-05-10T10:57:54;17.10;99.90
58582;DHT22;44361;51.476;5.700;2023-05-10T11:00:30;17.20;99.90
58582;DHT22;44361;51.476;5.700;2023-05-10T11:05:38;17.70;99.90
58582;DHT22;44361;51.476;5.700;2023-05-10T11:08:15;18.20;99.90
58582;DHT22;44361;51.476;5.700;2023-05-10T11:10:51;18.70;99.90
58582;DHT22;44361;51.476;5.700;2023-05-10T11:13:27;18.90;99.90
58582;DHT22;44361;51.476;5.700;2023-05-10T11:15:53;19.40;99.90
58582;DHT22;44361;51.476;5.700;2023-05-10T11:18:21;19.90;99.90
58582;DHT22;44361;51.476;5.700;2023-05-10T11:20:59;20.50;99.90
58582;DHT22;44361;51.476;5.700;2023-05-10T11:23:33;20.70;99.90
58582;DHT22;44361;51.476;5.700;2023-05-10T11:26:12;20.50;99.90
58582;DHT22;44361;51.476;5.700;2023-05-10T11:28:42;20.10;99.90
58582;DHT22;44361;51.476;5.700;2023-05-10T11:31:08;19.70;99.90
58582;DHT22;44361;51.476;5.700;2023-05-10T11:36:18;19.40;99.90
58582;DHT22;44361;51.476;5.700;2023-05-10T11:38:44;19.20;99.90
58582;DHT22;44361;51.476;5.700;2023-05-10T11:41:10;18.60;99.90
58582;DHT22;44361;51.476;5.700;2023-05-10T11:43:37;18.00;99.90
58582;DHT22;44361;51.476;5.700;2023-05-10T11:46:05;17.70;99.90
58582;DHT22;44361;51.476;5.700;2023-05-10T11:48:31;17.70;99.90
58582;DHT22;44361;51.476;5.700;2023-05-10T11:50:57;17.90;99.90
58582;DHT22;44361;51.476;5.700;2023-05-10T11:53:25;18.10;99.90
58582;DHT22;44361;51.476;5.700;2023-05-10T11:55:51;17.90;99.90
58582;DHT22;44361;51.476;5.700;2023-05-10T11:58:18;18.20;99.90
58582;DHT22;44361;51.476;5.700;2023-05-10T12:00:44;18.40;99.90
58582;DHT22;44361;51.476;5.700;2023-05-10T12:03:10;18.60;99.90
58582;DHT22;44361;51.476;5.700;2023-05-10T12:05:36;18.90;99.90
58582;DHT22;44361;51.476;5.700;2023-05-10T12:08:15;19.40;99.90
58582;DHT22;44361;51.476;5.700;2023-05-10T12:10:41;19.60;99.90
58582;DHT22;44361;51.476;5.700;2023-05-10T12:13:14;19.70;99.90
58582;DHT22;44361;51.476;5.700;2023-05-10T12:15:41;19.60;99.90
58582;DHT22;44361;51.476;5.700;2023-05-10T12:18:11;19.40;99.90
58582;DHT22;44361;51.476;5.700;2023-05-10T12:20:37;19.20;99.90
58582;DHT22;44361;51.476;5.700;2023-05-10T12:23:03;18.80;99.90
58582;DHT22;44361;51.476;5.700;2023-05-10T12:25:36;18.60;99.90
58582;DHT22;44361;51.476;5.700;2023-05-10T12:28:04;18.60;99.90
58582;DHT22;44361;51.476;5.700;2023-05-10T12:30:33;18.40;99.90
58582;DHT22;44361;51.476;5.700;2023-05-10T12:33:12;18.10;99.90
58582;DHT22;44361;51.476;5.700;2023-05-10T12:40:57;16.00;99.90
58582;DHT22;44361;51.476;5.700;2023-05-10T12:43:23;15.70;99.90
58582;DHT22;44361;51.476;5.700;2023-05-10T12:45:48;15.40;99.90
58582;DHT22;44361;51.476;5.700;2023-05-10T12:48:15;15.30;99.90
58582;DHT22;44361;51.476;5.700;2023-05-10T12:50:40;15.20;99.90
58582;DHT22;44361;51.476;5.700;2023-05-10T12:53:06;15.00;99.90
58582;DHT22;44361;51.476;5.700;2023-05-10T12:55:31;15.00;99.90
58582;DHT22;44361;51.476;5.700;2023-05-10T12:57:57;15.00;99.90
58582;DHT22;44361;51.476;5.700;2023-05-10T13:00:23;15.00;99.90
58582;DHT22;44361;51.476;5.700;2023-05-10T13:02:48;15.10;99.90
58582;DHT22;44361;51.476;5.700;2023-05-10T13:05:14;15.10;99.90
58582;DHT22;44361;51.476;5.700;2023-05-10T13:07:40;15.20;99.90
58582;DHT22;44361;51.476;5.700;2023-05-10T13:10:06;15.30;99.90
58582;DHT22;44361;51.476;5.700;2023-05-10T13:12:32;15.20;99.90
58582;DHT22;44361;51.476;5.700;2023-05-10T13:14:58;15.20;99.90
58582;DHT22;44361;51.476;5.700;2023-05-10T13:17:25;15.10;99.90
58582;DHT22;44361;51.476;5.700;2023-05-10T13:19:51;15.30;99.90
58582;DHT22;44361;51.476;5.700;2023-05-10T13:22:16;15.40;99.90
58582;DHT22;44361;51.476;5.700;2023-05-10T13:24:42;15.60;99.90
58582;DHT22;44361;51.476;5.700;2023-05-10T13:27:08;15.90;99.90
58582;DHT22;44361;51.476;5.700;2023-05-10T13:29:33;16.30;99.90
58582;DHT22;44361;51.476;5.700;2023-05-10T13:31:59;16.70;99.90
58582;DHT22;44361;51.476;5.700;2023-05-10T13:34:25;17.10;99.90
58582;DHT22;44361;51.476;5.700;2023-05-10T13:36:51;17.20;99.90
58582;DHT22;44361;51.476;5.700;2023-05-10T13:39:16;17.20;99.90
58582;DHT22;44361;51.476;5.700;2023-05-10T13:41:42;17.10;99.90
58582;DHT22;44361;51.476;5.700;2023-05-10T13:44:07;16.80;99.90
58582;DHT22;44361;51.476;5.700;2023-05-10T13:46:33;16.50;99.90
58582;DHT22;44361;51.476;5.700;2023-05-10T13:48:58;16.40;99.90
58582;DHT22;44361;51.476;5.700;2023-05-10T13:51:24;16.40;99.90
58582;DHT22;44361;51.476;5.700;2023-05-10T13:53:50;16.20;99.90
58582;DHT22;44361;51.476;5.700;2023-05-10T13:56:15;15.90;99.90
58582;DHT22;44361;51.476;5.700;2023-05-10T13:58:41;15.60;99.90
58582;DHT22;44361;51.476;5.700;2023-05-10T14:01:06;15.30;99.90
58582;DHT22;44361;51.476;5.700;2023-05-10T14:03:32;15.20;99.90
58582;DHT22;44361;51.476;5.700;2023-05-10T14:05:58;15.30;99.90
58582;DHT22;44361;51.476;5.700;2023-05-10T14:08:24;15.50;99.90
58582;DHT22;44361;51.476;5.700;2023-05-10T14:10:49;15.60;99.90
58582;DHT22;44361;51.476;5.700;2023-05-10T14:13:15;15.70;99.90
58582;DHT22;44361;51.476;5.700;2023-05-10T14:15:41;15.70;99.90
58582;DHT22;44361;51.476;5.700;2023-05-10T14:18:07;15.70;99.90
58582;DHT22;44361;51.476;5.700;2023-05-10T14:20:32;15.60;99.90
58582;DHT22;44361;51.476;5.700;2023-05-10T14:22:59;15.50;99.90
58582;DHT22;44361;51.476;5.700;2023-05-10T14:25:25;15.30;99.90
58582;DHT22;44361;51.476;5.700;2023-05-10T14:27:51;15.40;99.90
58582;DHT22;44361;51.476;5.700;2023-05-10T14:30:23;15.30;99.90
58582;DHT22;44361;51.476;5.700;2023-05-10T14:32:52;15.30;99.90
58582;DHT22;44361;51.476;5.700;2023-05-10T14:35:19;15.10;99.90
58582;DHT22;44361;51.476;5.700;2023-05-10T14:37:45;15.00;99.90
58582;DHT22;44361;51.476;5.700;2023-05-10T14:40:11;14.80;99.90
58582;DHT22;44361;51.476;5.700;2023-05-10T14:42:37;14.60;99.90
58582;DHT22;44361;51.476;5.700;2023-05-10T14:45:03;14.40;99.90
58582;DHT22;44361;51.476;5.700;2023-05-10T14:47:29;14.20;99.90
58582;DHT22;44361;51.476;5.700;2023-05-10T14:49:55;14.20;99.90
58582;DHT22;44361;51.476;5.700;2023-05-10T14:52:20;14.10;99.90
58582;DHT22;44361;51.476;5.700;2023-05-10T14:54:46;14.00;99.90
58582;DHT22;44361;51.476;5.700;2023-05-10T14:57:11;14.00;99.90
58582;DHT22;44361;51.476;5.700;2023-05-10T14:59:38;14.10;99.90
58582;DHT22;44361;51.476;5.700;2023-05-10T15:02:03;14.10;99.90
58582;DHT22;44361;51.476;5.700;2023-05-10T15:04:29;14.10;99.90
58582;DHT22;44361;51.476;5.700;2023-05-10T15:06:55;14.20;99.90
58582;DHT22;44361;51.476;5.700;2023-05-10T15:09:24;14.20;99.90
58582;DHT22;44361;51.476;5.700;2023-05-10T15:11:50;14.40;99.90
58582;DHT22;44361;51.476;5.700;2023-05-10T15:14:15;14.40;99.90
58582;DHT22;44361;51.476;5.700;2023-05-10T15:16:41;14.50;99.90
58582;DHT22;44361;51.476;5.700;2023-05-10T15:19:06;14.50;99.90
58582;DHT22;44361;51.476;5.700;2023-05-10T15:21:32;14.60;99.90
58582;DHT22;44361;51.476;5.700;2023-05-10T15:24:06;14.70;99.90
58582;DHT22;44361;51.476;5.700;2023-05-10T15:26:32;14.90;99.90
58582;DHT22;44361;51.476;5.700;2023-05-10T15:28:57;15.00;99.90
58582;DHT22;44361;51.476;5.700;2023-05-10T15:31:23;14.90;99.90
58582;DHT22;44361;51.476;5.700;2023-05-10T15:33:49;15.10;99.90
58582;DHT22;44361;51.476;5.700;2023-05-10T15:36:14;15.10;99.90
58582;DHT22;44361;51.476;5.700;2023-05-10T15:38:40;14.90;99.90
58582;DHT22;44361;51.476;5.700;2023-05-10T15:41:06;15.00;99.90
58582;DHT22;44361;51.476;5.700;2023-05-10T15:43:31;14.90;99.90
58582;DHT22;44361;51.476;5.700;2023-05-10T15:45:57;15.00;99.90
58582;DHT22;44361;51.476;5.700;2023-05-10T15:48:22;15.10;99.90
58582;DHT22;44361;51.476;5.700;2023-05-10T15:50:48;15.30;99.90
58582;DHT22;44361;51.476;5.700;2023-05-10T15:53:13;15.20;99.90
58582;DHT22;44361;51.476;5.700;2023-05-10T15:55:39;15.10;99.90
58582;DHT22;44361;51.476;5.700;2023-05-10T15:58:04;15.10;99.90
58582;DHT22;44361;51.476;5.700;2023-05-10T16:00:30;15.10;99.90
58582;DHT22;44361;51.476;5.700;2023-05-10T16:02:55;15.10;99.90
58582;DHT22;44361;51.476;5.700;2023-05-10T16:05:21;15.10;99.90